sensor_id;sensor_type;location;lat;lon;timestamp;P1;durP1;ratioP1;P2;durP2;ratioP2
82475;SDS011;72099;43.176;76.872;2023-08-12T00:02:46;5.45;;;2.78;;
82475;SDS011;72099;43.176;76.872;2023-08-12T00:05:47;6.80;;;2.63;;
82475;SDS011;72099;43.176;76.872;2023-08-12T00:08:47;4.35;;;2.30;;
82475;SDS011;72099;43.176;76.872;2023-08-12T00:11:48;6.70;;;3.30;;
82475;SDS011;72099;43.176;76.872;2023-08-12T00:14:49;5.50;;;2.72;;
82475;SDS011;72099;43.176;76.872;2023-08-12T00:17:50;5.40;;;2.78;;
82475;SDS011;72099;43.176;76.872;2023-08-12T00:20:50;5.05;;;2.05;;
82475;SDS011;72099;43.176;76.872;2023-08-12T00:23:51;7.35;;;2.65;;
82475;SDS011;72099;43.176;76.872;2023-08-12T00:26:52;5.53;;;2.50;;
82475;SDS011;72099;43.176;76.872;2023-08-12T00:29:53;6.03;;;2.28;;
82475;SDS011;72099;43.176;76.872;2023-08-12T00:32:54;4.43;;;2.38;;
82475;SDS011;72099;43.176;76.872;2023-08-12T00:35:54;4.53;;;2.30;;
82475;SDS011;72099;43.176;76.872;2023-08-12T00:38:55;4.13;;;2.55;;
82475;SDS011;72099;43.176;76.872;2023-08-12T00:41:56;6.30;;;2.85;;
82475;SDS011;72099;43.176;76.872;2023-08-12T00:44:57;6.07;;;2.80;;
82475;SDS011;72099;43.176;76.872;2023-08-12T00:47:58;3.35;;;2.30;;
82475;SDS011;72099;43.176;76.872;2023-08-12T00:50:59;5.82;;;2.50;;
82475;SDS011;72099;43.176;76.872;2023-08-12T00:54:00;4.32;;;2.20;;
82475;SDS011;72099;43.176;76.872;2023-08-12T00:57:04;4.15;;;2.38;;
82475;SDS011;72099;43.176;76.872;2023-08-12T01:00:06;6.78;;;2.60;;
82475;SDS011;72099;43.176;76.872;2023-08-12T01:03:08;5.45;;;2.67;;
82475;SDS011;72099;43.176;76.872;2023-08-12T01:06:09;4.38;;;2.53;;
82475;SDS011;72099;43.176;76.872;2023-08-12T01:09:09;7.38;;;2.90;;
82475;SDS011;72099;43.176;76.872;2023-08-12T01:12:17;6.10;;;2.75;;
82475;SDS011;72099;43.176;76.872;2023-08-12T01:15:24;7.43;;;2.78;;
82475;SDS011;72099;43.176;76.872;2023-08-12T01:18:26;4.60;;;2.50;;
82475;SDS011;72099;43.176;76.872;2023-08-12T01:21:28;4.22;;;2.40;;
82475;SDS011;72099;43.176;76.872;2023-08-12T01:24:35;6.53;;;2.85;;
82475;SDS011;72099;43.176;76.872;2023-08-12T01:27:37;4.80;;;2.80;;
82475;SDS011;72099;43.176;76.872;2023-08-12T01:30:55;3.53;;;2.38;;
82475;SDS011;72099;43.176;76.872;2023-08-12T01:34:02;8.02;;;2.80;;
82475;SDS011;72099;43.176;76.872;2023-08-12T01:37:29;6.68;;;2.83;;
82475;SDS011;72099;43.176;76.872;2023-08-12T01:40:31;5.38;;;2.95;;
82475;SDS011;72099;43.176;76.872;2023-08-12T01:43:32;7.65;;;3.30;;
82475;SDS011;72099;43.176;76.872;2023-08-12T01:46:33;5.18;;;2.28;;
82475;SDS011;72099;43.176;76.872;2023-08-12T01:49:34;11.88;;;3.00;;
82475;SDS011;72099;43.176;76.872;2023-08-12T01:52:35;5.03;;;2.70;;
82475;SDS011;72099;43.176;76.872;2023-08-12T01:55:36;5.00;;;2.63;;
82475;SDS011;72099;43.176;76.872;2023-08-12T01:58:36;19.42;;;4.35;;
82475;SDS011;72099;43.176;76.872;2023-08-12T02:01:37;5.82;;;3.08;;
82475;SDS011;72099;43.176;76.872;2023-08-12T02:04:39;6.55;;;2.80;;
82475;SDS011;72099;43.176;76.872;2023-08-12T02:07:40;7.18;;;2.80;;
82475;SDS011;72099;43.176;76.872;2023-08-12T02:10:41;4.97;;;2.78;;
82475;SDS011;72099;43.176;76.872;2023-08-12T02:13:42;9.20;;;2.97;;
82475;SDS011;72099;43.176;76.872;2023-08-12T02:16:43;6.50;;;3.13;;
82475;SDS011;72099;43.176;76.872;2023-08-12T02:19:43;8.13;;;3.50;;
82475;SDS011;72099;43.176;76.872;2023-08-12T02:22:44;9.45;;;3.50;;
82475;SDS011;72099;43.176;76.872;2023-08-12T02:25:45;7.63;;;3.35;;
82475;SDS011;72099;43.176;76.872;2023-08-12T02:28:47;11.27;;;3.55;;
82475;SDS011;72099;43.176;76.872;2023-08-12T02:31:47;7.95;;;3.38;;
82475;SDS011;72099;43.176;76.872;2023-08-12T02:34:48;6.80;;;3.53;;
82475;SDS011;72099;43.176;76.872;2023-08-12T02:37:49;6.10;;;3.42;;
82475;SDS011;72099;43.176;76.872;2023-08-12T02:40:50;8.18;;;4.03;;
82475;SDS011;72099;43.176;76.872;2023-08-12T02:43:51;6.45;;;3.58;;
82475;SDS011;72099;43.176;76.872;2023-08-12T02:46:51;7.43;;;3.65;;
82475;SDS011;72099;43.176;76.872;2023-08-12T02:49:52;6.68;;;3.40;;
82475;SDS011;72099;43.176;76.872;2023-08-12T02:52:53;9.15;;;3.40;;
82475;SDS011;72099;43.176;76.872;2023-08-12T02:55:54;8.48;;;3.50;;
82475;SDS011;72099;43.176;76.872;2023-08-12T02:58:54;7.18;;;3.42;;
82475;SDS011;72099;43.176;76.872;2023-08-12T03:01:55;4.90;;;2.95;;
82475;SDS011;72099;43.176;76.872;2023-08-12T03:04:56;8.70;;;3.65;;
82475;SDS011;72099;43.176;76.872;2023-08-12T03:07:56;8.27;;;3.25;;
82475;SDS011;72099;43.176;76.872;2023-08-12T03:11:01;7.35;;;3.20;;
82475;SDS011;72099;43.176;76.872;2023-08-12T03:14:02;5.78;;;3.03;;
82475;SDS011;72099;43.176;76.872;2023-08-12T03:17:03;4.97;;;3.38;;
82475;SDS011;72099;43.176;76.872;2023-08-12T03:20:05;6.28;;;3.17;;
82475;SDS011;72099;43.176;76.872;2023-08-12T03:23:08;6.05;;;2.97;;
82475;SDS011;72099;43.176;76.872;2023-08-12T03:26:09;6.80;;;2.85;;
82475;SDS011;72099;43.176;76.872;2023-08-12T03:29:11;6.72;;;3.17;;
82475;SDS011;72099;43.176;76.872;2023-08-12T03:32:11;15.65;;;3.33;;
82475;SDS011;72099;43.176;76.872;2023-08-12T03:35:12;8.50;;;3.55;;
82475;SDS011;72099;43.176;76.872;2023-08-12T03:38:13;12.10;;;4.53;;
82475;SDS011;72099;43.176;76.872;2023-08-12T03:41:14;14.40;;;3.47;;
82475;SDS011;72099;43.176;76.872;2023-08-12T03:44:15;8.50;;;3.30;;
82475;SDS011;72099;43.176;76.872;2023-08-12T03:47:16;8.80;;;2.83;;
82475;SDS011;72099;43.176;76.872;2023-08-12T03:50:21;7.05;;;3.33;;
82475;SDS011;72099;43.176;76.872;2023-08-12T03:53:22;6.63;;;3.35;;
82475;SDS011;72099;43.176;76.872;2023-08-12T03:56:23;11.45;;;3.30;;
82475;SDS011;72099;43.176;76.872;2023-08-12T03:59:24;8.43;;;3.33;;
82475;SDS011;72099;43.176;76.872;2023-08-12T04:02:24;11.48;;;3.33;;
82475;SDS011;72099;43.176;76.872;2023-08-12T04:05:25;10.55;;;3.28;;
82475;SDS011;72099;43.176;76.872;2023-08-12T04:08:26;9.48;;;3.20;;
82475;SDS011;72099;43.176;76.872;2023-08-12T04:11:27;6.93;;;3.17;;
82475;SDS011;72099;43.176;76.872;2023-08-12T04:14:27;8.15;;;2.95;;
82475;SDS011;72099;43.176;76.872;2023-08-12T04:17:28;8.40;;;3.28;;
82475;SDS011;72099;43.176;76.872;2023-08-12T04:20:29;10.80;;;3.50;;
82475;SDS011;72099;43.176;76.872;2023-08-12T04:23:30;9.88;;;3.30;;
82475;SDS011;72099;43.176;76.872;2023-08-12T04:26:31;10.55;;;3.58;;
82475;SDS011;72099;43.176;76.872;2023-08-12T04:29:32;9.35;;;3.30;;
82475;SDS011;72099;43.176;76.872;2023-08-12T04:32:32;8.93;;;3.35;;
82475;SDS011;72099;43.176;76.872;2023-08-12T04:35:33;10.68;;;3.65;;
82475;SDS011;72099;43.176;76.872;2023-08-12T04:38:34;14.23;;;3.85;;
82475;SDS011;72099;43.176;76.872;2023-08-12T04:41:35;10.52;;;3.67;;
82475;SDS011;72099;43.176;76.872;2023-08-12T04:44:38;9.07;;;3.42;;
82475;SDS011;72099;43.176;76.872;2023-08-12T04:47:39;10.20;;;4.03;;
82475;SDS011;72099;43.176;76.872;2023-08-12T04:50:41;11.75;;;4.63;;
82475;SDS011;72099;43.176;76.872;2023-08-12T04:53:42;13.55;;;5.97;;
82475;SDS011;72099;43.176;76.872;2023-08-12T04:56:43;16.50;;;6.50;;
82475;SDS011;72099;43.176;76.872;2023-08-12T04:59:44;17.10;;;6.20;;
82475;SDS011;72099;43.176;76.872;2023-08-12T05:02:44;15.32;;;7.03;;
82475;SDS011;72099;43.176;76.872;2023-08-12T05:05:52;19.60;;;7.78;;
82475;SDS011;72099;43.176;76.872;2023-08-12T05:08:53;18.17;;;8.73;;
82475;SDS011;72099;43.176;76.872;2023-08-12T05:11:53;15.63;;;7.75;;
82475;SDS011;72099;43.176;76.872;2023-08-12T05:14:54;17.10;;;8.18;;
82475;SDS011;72099;43.176;76.872;2023-08-12T05:17:55;15.35;;;7.15;;
82475;SDS011;72099;43.176;76.872;2023-08-12T05:20:56;13.55;;;6.72;;
82475;SDS011;72099;43.176;76.872;2023-08-12T05:23:57;12.70;;;7.30;;
82475;SDS011;72099;43.176;76.872;2023-08-12T05:26:58;10.70;;;6.90;;
82475;SDS011;72099;43.176;76.872;2023-08-12T05:30:01;17.33;;;6.22;;
82475;SDS011;72099;43.176;76.872;2023-08-12T05:33:02;12.63;;;6.68;;
82475;SDS011;72099;43.176;76.872;2023-08-12T05:36:03;10.55;;;5.68;;
82475;SDS011;72099;43.176;76.872;2023-08-12T05:39:04;20.33;;;6.40;;
82475;SDS011;72099;43.176;76.872;2023-08-12T05:42:05;13.50;;;6.22;;
82475;SDS011;72099;43.176;76.872;2023-08-12T05:45:06;11.30;;;6.13;;
82475;SDS011;72099;43.176;76.872;2023-08-12T05:48:07;12.65;;;5.93;;
82475;SDS011;72099;43.176;76.872;2023-08-12T05:51:08;11.40;;;6.38;;
82475;SDS011;72099;43.176;76.872;2023-08-12T05:54:10;11.38;;;5.60;;
82475;SDS011;72099;43.176;76.872;2023-08-12T05:57:11;9.98;;;5.47;;
82475;SDS011;72099;43.176;76.872;2023-08-12T06:00:12;10.38;;;4.80;;
82475;SDS011;72099;43.176;76.872;2023-08-12T06:03:12;12.73;;;4.70;;
82475;SDS011;72099;43.176;76.872;2023-08-12T06:06:13;7.22;;;4.30;;
82475;SDS011;72099;43.176;76.872;2023-08-12T06:09:14;10.15;;;4.38;;
82475;SDS011;72099;43.176;76.872;2023-08-12T06:12:15;7.95;;;3.85;;
82475;SDS011;72099;43.176;76.872;2023-08-12T06:15:15;9.05;;;4.20;;
82475;SDS011;72099;43.176;76.872;2023-08-12T06:18:16;7.88;;;4.25;;
82475;SDS011;72099;43.176;76.872;2023-08-12T06:21:17;12.20;;;5.03;;
82475;SDS011;72099;43.176;76.872;2023-08-12T06:24:18;11.55;;;4.93;;
82475;SDS011;72099;43.176;76.872;2023-08-12T06:27:18;7.43;;;5.05;;
82475;SDS011;72099;43.176;76.872;2023-08-12T06:30:20;10.65;;;5.70;;
82475;SDS011;72099;43.176;76.872;2023-08-12T06:33:21;8.50;;;5.05;;
82475;SDS011;72099;43.176;76.872;2023-08-12T06:36:22;7.30;;;4.50;;
82475;SDS011;72099;43.176;76.872;2023-08-12T06:39:23;9.10;;;4.22;;
82475;SDS011;72099;43.176;76.872;2023-08-12T06:42:24;7.60;;;4.35;;
82475;SDS011;72099;43.176;76.872;2023-08-12T06:45:24;4.78;;;3.47;;
82475;SDS011;72099;43.176;76.872;2023-08-12T06:48:25;7.25;;;3.78;;
82475;SDS011;72099;43.176;76.872;2023-08-12T06:51:26;6.70;;;3.58;;
82475;SDS011;72099;43.176;76.872;2023-08-12T06:54:27;7.82;;;3.63;;
82475;SDS011;72099;43.176;76.872;2023-08-12T06:57:27;8.00;;;4.00;;
82475;SDS011;72099;43.176;76.872;2023-08-12T07:00:28;5.32;;;3.30;;
82475;SDS011;72099;43.176;76.872;2023-08-12T07:03:29;6.22;;;3.60;;
82475;SDS011;72099;43.176;76.872;2023-08-12T07:06:30;6.10;;;3.05;;
82475;SDS011;72099;43.176;76.872;2023-08-12T07:09:30;5.05;;;3.17;;
82475;SDS011;72099;43.176;76.872;2023-08-12T07:12:31;6.75;;;3.20;;
82475;SDS011;72099;43.176;76.872;2023-08-12T07:15:32;8.60;;;3.83;;
82475;SDS011;72099;43.176;76.872;2023-08-12T07:18:33;4.70;;;3.05;;
82475;SDS011;72099;43.176;76.872;2023-08-12T07:21:34;6.55;;;2.90;;
82475;SDS011;72099;43.176;76.872;2023-08-12T07:24:35;5.53;;;2.70;;
82475;SDS011;72099;43.176;76.872;2023-08-12T07:27:36;4.68;;;2.70;;
82475;SDS011;72099;43.176;76.872;2023-08-12T07:30:37;4.35;;;2.63;;
82475;SDS011;72099;43.176;76.872;2023-08-12T07:33:38;4.55;;;2.45;;
82475;SDS011;72099;43.176;76.872;2023-08-12T07:36:39;3.88;;;2.60;;
82475;SDS011;72099;43.176;76.872;2023-08-12T07:39:40;5.00;;;2.65;;
82475;SDS011;72099;43.176;76.872;2023-08-12T07:42:41;5.47;;;2.38;;
82475;SDS011;72099;43.176;76.872;2023-08-12T07:45:42;3.80;;;2.40;;
82475;SDS011;72099;43.176;76.872;2023-08-12T07:48:42;4.47;;;2.85;;
82475;SDS011;72099;43.176;76.872;2023-08-12T07:51:43;4.55;;;2.53;;
82475;SDS011;72099;43.176;76.872;2023-08-12T07:54:44;3.58;;;2.05;;
82475;SDS011;72099;43.176;76.872;2023-08-12T07:57:45;3.88;;;2.20;;
82475;SDS011;72099;43.176;76.872;2023-08-12T08:00:45;4.38;;;2.25;;
82475;SDS011;72099;43.176;76.872;2023-08-12T08:03:46;3.97;;;2.60;;
82475;SDS011;72099;43.176;76.872;2023-08-12T08:06:47;4.13;;;2.30;;
82475;SDS011;72099;43.176;76.872;2023-08-12T08:09:48;4.68;;;2.65;;
82475;SDS011;72099;43.176;76.872;2023-08-12T08:12:51;3.50;;;2.15;;
82475;SDS011;72099;43.176;76.872;2023-08-12T08:15:51;5.82;;;2.50;;
82475;SDS011;72099;43.176;76.872;2023-08-12T08:18:52;3.08;;;2.10;;
82475;SDS011;72099;43.176;76.872;2023-08-12T08:21:53;3.90;;;2.17;;
82475;SDS011;72099;43.176;76.872;2023-08-12T08:24:54;3.63;;;2.38;;
82475;SDS011;72099;43.176;76.872;2023-08-12T08:27:54;4.80;;;2.50;;
82475;SDS011;72099;43.176;76.872;2023-08-12T08:30:55;4.88;;;2.33;;
82475;SDS011;72099;43.176;76.872;2023-08-12T08:33:56;4.93;;;2.30;;
82475;SDS011;72099;43.176;76.872;2023-08-12T08:36:56;3.88;;;2.50;;
82475;SDS011;72099;43.176;76.872;2023-08-12T08:39:57;5.45;;;2.88;;
82475;SDS011;72099;43.176;76.872;2023-08-12T08:43:00;5.88;;;3.35;;
82475;SDS011;72099;43.176;76.872;2023-08-12T08:46:04;4.35;;;2.67;;
82475;SDS011;72099;43.176;76.872;2023-08-12T08:49:06;5.32;;;2.95;;
82475;SDS011;72099;43.176;76.872;2023-08-12T08:52:09;5.55;;;3.45;;
82475;SDS011;72099;43.176;76.872;2023-08-12T08:55:11;6.22;;;3.00;;
82475;SDS011;72099;43.176;76.872;2023-08-12T08:58:12;4.47;;;3.00;;
82475;SDS011;72099;43.176;76.872;2023-08-12T09:01:13;6.50;;;3.42;;
82475;SDS011;72099;43.176;76.872;2023-08-12T09:04:18;6.82;;;2.90;;
82475;SDS011;72099;43.176;76.872;2023-08-12T09:07:21;6.90;;;3.50;;
82475;SDS011;72099;43.176;76.872;2023-08-12T09:10:23;7.55;;;2.90;;
82475;SDS011;72099;43.176;76.872;2023-08-12T09:13:27;5.45;;;2.65;;
82475;SDS011;72099;43.176;76.872;2023-08-12T09:16:28;9.57;;;3.10;;
82475;SDS011;72099;43.176;76.872;2023-08-12T09:19:29;4.90;;;2.78;;
82475;SDS011;72099;43.176;76.872;2023-08-12T09:22:30;7.43;;;2.85;;
82475;SDS011;72099;43.176;76.872;2023-08-12T09:25:31;5.80;;;2.67;;
82475;SDS011;72099;43.176;76.872;2023-08-12T09:28:32;6.10;;;2.90;;
82475;SDS011;72099;43.176;76.872;2023-08-12T09:31:33;7.18;;;2.97;;
82475;SDS011;72099;43.176;76.872;2023-08-12T09:34:33;7.65;;;3.40;;
82475;SDS011;72099;43.176;76.872;2023-08-12T09:37:34;6.88;;;3.92;;
82475;SDS011;72099;43.176;76.872;2023-08-12T09:40:35;8.05;;;4.00;;
82475;SDS011;72099;43.176;76.872;2023-08-12T09:43:40;8.60;;;4.20;;
82475;SDS011;72099;43.176;76.872;2023-08-12T09:46:43;7.20;;;3.97;;
82475;SDS011;72099;43.176;76.872;2023-08-12T09:49:43;7.82;;;4.15;;
82475;SDS011;72099;43.176;76.872;2023-08-12T09:52:44;5.85;;;4.00;;
82475;SDS011;72099;43.176;76.872;2023-08-12T09:55:47;7.72;;;4.35;;
82475;SDS011;72099;43.176;76.872;2023-08-12T09:58:49;6.90;;;3.72;;
82475;SDS011;72099;43.176;76.872;2023-08-12T10:01:50;6.00;;;3.67;;
82475;SDS011;72099;43.176;76.872;2023-08-12T10:04:53;6.10;;;3.30;;
82475;SDS011;72099;43.176;76.872;2023-08-12T10:07:57;6.55;;;3.25;;
82475;SDS011;72099;43.176;76.872;2023-08-12T10:10:58;7.78;;;3.95;;
82475;SDS011;72099;43.176;76.872;2023-08-12T10:13:59;4.95;;;3.00;;
82475;SDS011;72099;43.176;76.872;2023-08-12T10:17:01;6.20;;;3.33;;
82475;SDS011;72099;43.176;76.872;2023-08-12T10:20:06;5.35;;;3.33;;
82475;SDS011;72099;43.176;76.872;2023-08-12T10:23:09;6.38;;;3.17;;
82475;SDS011;72099;43.176;76.872;2023-08-12T10:26:15;6.38;;;3.45;;
82475;SDS011;72099;43.176;76.872;2023-08-12T10:29:17;6.40;;;3.35;;
82475;SDS011;72099;43.176;76.872;2023-08-12T10:32:18;5.25;;;3.53;;
82475;SDS011;72099;43.176;76.872;2023-08-12T10:35:19;5.50;;;3.20;;
82475;SDS011;72099;43.176;76.872;2023-08-12T10:38:20;5.75;;;3.60;;
82475;SDS011;72099;43.176;76.872;2023-08-12T10:41:22;7.85;;;3.42;;
82475;SDS011;72099;43.176;76.872;2023-08-12T10:44:48;4.95;;;3.50;;
82475;SDS011;72099;43.176;76.872;2023-08-12T10:51:35;6.97;;;2.97;;
82475;SDS011;72099;43.176;76.872;2023-08-12T10:54:39;5.00;;;2.97;;
82475;SDS011;72099;43.176;76.872;2023-08-12T10:57:40;4.85;;;3.10;;
82475;SDS011;72099;43.176;76.872;2023-08-12T11:00:41;5.18;;;3.50;;
82475;SDS011;72099;43.176;76.872;2023-08-12T11:03:42;6.18;;;3.35;;
82475;SDS011;72099;43.176;76.872;2023-08-12T11:06:45;5.03;;;3.00;;
82475;SDS011;72099;43.176;76.872;2023-08-12T11:09:50;6.15;;;3.25;;
82475;SDS011;72099;43.176;76.872;2023-08-12T11:12:56;5.15;;;3.50;;
82475;SDS011;72099;43.176;76.872;2023-08-12T11:16:07;5.13;;;3.20;;
82475;SDS011;72099;43.176;76.872;2023-08-12T11:19:09;5.20;;;3.22;;
82475;SDS011;72099;43.176;76.872;2023-08-12T11:22:10;4.97;;;3.15;;
82475;SDS011;72099;43.176;76.872;2023-08-12T11:25:13;4.57;;;2.90;;
82475;SDS011;72099;43.176;76.872;2023-08-12T11:28:14;4.20;;;2.80;;
82475;SDS011;72099;43.176;76.872;2023-08-12T11:31:16;3.53;;;2.40;;
82475;SDS011;72099;43.176;76.872;2023-08-12T11:34:17;3.72;;;2.30;;
82475;SDS011;72099;43.176;76.872;2023-08-12T11:37:18;4.13;;;2.45;;
82475;SDS011;72099;43.176;76.872;2023-08-12T11:40:19;4.38;;;2.55;;
82475;SDS011;72099;43.176;76.872;2023-08-12T11:43:21;3.70;;;2.40;;
82475;SDS011;72099;43.176;76.872;2023-08-12T11:46:22;3.25;;;2.28;;
82475;SDS011;72099;43.176;76.872;2023-08-12T11:49:25;5.78;;;2.50;;
82475;SDS011;72099;43.176;76.872;2023-08-12T11:52:25;3.92;;;2.90;;
82475;SDS011;72099;43.176;76.872;2023-08-12T11:55:26;3.63;;;2.45;;
82475;SDS011;72099;43.176;76.872;2023-08-12T11:58:34;5.18;;;2.50;;
82475;SDS011;72099;43.176;76.872;2023-08-12T12:01:36;3.58;;;2.30;;
82475;SDS011;72099;43.176;76.872;2023-08-12T12:04:37;4.47;;;2.40;;
82475;SDS011;72099;43.176;76.872;2023-08-12T12:07:38;5.55;;;2.67;;
82475;SDS011;72099;43.176;76.872;2023-08-12T12:10:39;9.00;;;2.95;;
82475;SDS011;72099;43.176;76.872;2023-08-12T12:13:40;6.97;;;2.97;;
82475;SDS011;72099;43.176;76.872;2023-08-12T12:16:47;4.18;;;2.88;;
82475;SDS011;72099;43.176;76.872;2023-08-12T12:19:52;5.97;;;3.10;;
82475;SDS011;72099;43.176;76.872;2023-08-12T12:23:04;7.00;;;2.83;;
82475;SDS011;72099;43.176;76.872;2023-08-12T12:26:06;4.70;;;2.60;;
82475;SDS011;72099;43.176;76.872;2023-08-12T12:29:09;7.32;;;2.80;;
82475;SDS011;72099;43.176;76.872;2023-08-12T12:32:14;5.30;;;2.80;;
82475;SDS011;72099;43.176;76.872;2023-08-12T12:35:14;6.30;;;2.88;;
82475;SDS011;72099;43.176;76.872;2023-08-12T12:38:16;6.93;;;2.88;;
82475;SDS011;72099;43.176;76.872;2023-08-12T12:41:16;5.60;;;2.92;;
82475;SDS011;72099;43.176;76.872;2023-08-12T12:44:17;7.05;;;3.08;;
82475;SDS011;72099;43.176;76.872;2023-08-12T12:47:18;6.00;;;3.00;;
82475;SDS011;72099;43.176;76.872;2023-08-12T12:50:19;5.55;;;2.90;;
82475;SDS011;72099;43.176;76.872;2023-08-12T12:53:20;6.40;;;3.13;;
82475;SDS011;72099;43.176;76.872;2023-08-12T12:56:21;7.03;;;3.00;;
82475;SDS011;72099;43.176;76.872;2023-08-12T12:59:22;6.00;;;2.92;;
82475;SDS011;72099;43.176;76.872;2023-08-12T13:02:23;4.93;;;2.60;;
82475;SDS011;72099;43.176;76.872;2023-08-12T13:05:24;6.18;;;2.72;;
82475;SDS011;72099;43.176;76.872;2023-08-12T13:08:24;5.88;;;2.30;;
82475;SDS011;72099;43.176;76.872;2023-08-12T13:11:25;6.47;;;2.35;;
82475;SDS011;72099;43.176;76.872;2023-08-12T13:14:26;4.30;;;2.15;;
82475;SDS011;72099;43.176;76.872;2023-08-12T13:17:29;3.88;;;2.60;;
82475;SDS011;72099;43.176;76.872;2023-08-12T13:20:29;5.97;;;2.60;;
82475;SDS011;72099;43.176;76.872;2023-08-12T13:23:30;4.90;;;2.83;;
82475;SDS011;72099;43.176;76.872;2023-08-12T13:26:31;7.03;;;3.17;;
82475;SDS011;72099;43.176;76.872;2023-08-12T13:29:31;4.70;;;2.90;;
82475;SDS011;72099;43.176;76.872;2023-08-12T13:32:32;4.40;;;3.03;;
82475;SDS011;72099;43.176;76.872;2023-08-12T13:35:33;5.03;;;3.08;;
82475;SDS011;72099;43.176;76.872;2023-08-12T13:38:34;5.30;;;2.92;;
82475;SDS011;72099;43.176;76.872;2023-08-12T13:41:34;5.20;;;3.28;;
82475;SDS011;72099;43.176;76.872;2023-08-12T13:44:35;5.90;;;3.30;;
82475;SDS011;72099;43.176;76.872;2023-08-12T13:47:36;4.68;;;3.20;;
82475;SDS011;72099;43.176;76.872;2023-08-12T13:50:37;4.05;;;2.95;;
82475;SDS011;72099;43.176;76.872;2023-08-12T13:53:38;6.35;;;2.95;;
82475;SDS011;72099;43.176;76.872;2023-08-12T13:56:39;4.68;;;3.13;;
82475;SDS011;72099;43.176;76.872;2023-08-12T13:59:39;4.97;;;2.85;;
82475;SDS011;72099;43.176;76.872;2023-08-12T14:02:44;4.03;;;2.90;;
82475;SDS011;72099;43.176;76.872;2023-08-12T14:05:45;3.63;;;2.42;;
82475;SDS011;72099;43.176;76.872;2023-08-12T14:08:45;3.20;;;2.58;;
82475;SDS011;72099;43.176;76.872;2023-08-12T14:11:46;5.72;;;2.83;;
82475;SDS011;72099;43.176;76.872;2023-08-12T14:14:47;4.15;;;2.80;;
82475;SDS011;72099;43.176;76.872;2023-08-12T14:17:48;6.88;;;2.60;;
82475;SDS011;72099;43.176;76.872;2023-08-12T14:20:49;3.45;;;2.20;;
82475;SDS011;72099;43.176;76.872;2023-08-12T14:23:50;5.22;;;2.30;;
82475;SDS011;72099;43.176;76.872;2023-08-12T14:26:50;3.03;;;2.30;;
82475;SDS011;72099;43.176;76.872;2023-08-12T14:29:51;3.20;;;2.10;;
82475;SDS011;72099;43.176;76.872;2023-08-12T14:32:52;3.17;;;2.35;;
82475;SDS011;72099;43.176;76.872;2023-08-12T14:35:54;2.95;;;2.05;;
82475;SDS011;72099;43.176;76.872;2023-08-12T14:38:57;3.40;;;2.30;;
82475;SDS011;72099;43.176;76.872;2023-08-12T14:41:58;5.05;;;2.25;;
82475;SDS011;72099;43.176;76.872;2023-08-12T14:44:59;3.15;;;2.25;;
82475;SDS011;72099;43.176;76.872;2023-08-12T14:47:59;4.05;;;2.30;;
82475;SDS011;72099;43.176;76.872;2023-08-12T14:51:00;4.40;;;3.25;;
82475;SDS011;72099;43.176;76.872;2023-08-12T14:54:01;6.03;;;3.33;;
82475;SDS011;72099;43.176;76.872;2023-08-12T14:57:02;4.40;;;3.10;;
82475;SDS011;72099;43.176;76.872;2023-08-12T15:00:03;4.80;;;3.00;;
82475;SDS011;72099;43.176;76.872;2023-08-12T15:03:06;3.85;;;2.72;;
82475;SDS011;72099;43.176;76.872;2023-08-12T15:06:07;4.05;;;2.53;;
82475;SDS011;72099;43.176;76.872;2023-08-12T15:09:08;4.65;;;2.85;;
82475;SDS011;72099;43.176;76.872;2023-08-12T15:12:09;4.38;;;2.42;;
82475;SDS011;72099;43.176;76.872;2023-08-12T15:15:10;3.65;;;2.45;;
82475;SDS011;72099;43.176;76.872;2023-08-12T15:18:12;5.10;;;2.50;;
82475;SDS011;72099;43.176;76.872;2023-08-12T15:21:12;5.00;;;2.97;;
82475;SDS011;72099;43.176;76.872;2023-08-12T15:24:13;4.75;;;3.00;;
82475;SDS011;72099;43.176;76.872;2023-08-12T15:27:14;4.13;;;2.50;;
82475;SDS011;72099;43.176;76.872;2023-08-12T15:30:15;4.43;;;2.80;;
82475;SDS011;72099;43.176;76.872;2023-08-12T15:33:16;3.95;;;2.38;;
82475;SDS011;72099;43.176;76.872;2023-08-12T15:36:17;4.78;;;2.55;;
82475;SDS011;72099;43.176;76.872;2023-08-12T15:39:17;3.50;;;2.42;;
82475;SDS011;72099;43.176;76.872;2023-08-12T15:42:18;3.33;;;2.30;;
82475;SDS011;72099;43.176;76.872;2023-08-12T15:45:19;4.05;;;2.20;;
82475;SDS011;72099;43.176;76.872;2023-08-12T15:48:20;3.50;;;2.42;;
82475;SDS011;72099;43.176;76.872;2023-08-12T15:51:21;3.45;;;2.25;;
82475;SDS011;72099;43.176;76.872;2023-08-12T15:54:21;5.55;;;2.60;;
82475;SDS011;72099;43.176;76.872;2023-08-12T15:57:22;4.05;;;2.50;;
82475;SDS011;72099;43.176;76.872;2023-08-12T16:00:23;3.30;;;2.03;;
82475;SDS011;72099;43.176;76.872;2023-08-12T16:03:24;3.35;;;1.95;;
82475;SDS011;72099;43.176;76.872;2023-08-12T16:06:25;2.50;;;1.98;;
82475;SDS011;72099;43.176;76.872;2023-08-12T16:09:26;2.40;;;1.70;;
82475;SDS011;72099;43.176;76.872;2023-08-12T16:12:27;2.70;;;1.80;;
82475;SDS011;72099;43.176;76.872;2023-08-12T16:15:28;2.83;;;2.00;;
82475;SDS011;72099;43.176;76.872;2023-08-12T16:18:28;2.97;;;2.10;;
82475;SDS011;72099;43.176;76.872;2023-08-12T16:21:29;2.40;;;1.70;;
82475;SDS011;72099;43.176;76.872;2023-08-12T16:24:30;2.95;;;2.00;;
82475;SDS011;72099;43.176;76.872;2023-08-12T16:27:31;2.55;;;1.95;;
82475;SDS011;72099;43.176;76.872;2023-08-12T16:30:31;2.78;;;1.92;;
82475;SDS011;72099;43.176;76.872;2023-08-12T16:33:32;2.90;;;1.90;;
82475;SDS011;72099;43.176;76.872;2023-08-12T16:36:33;2.30;;;1.63;;
82475;SDS011;72099;43.176;76.872;2023-08-12T16:39:33;4.00;;;1.98;;
82475;SDS011;72099;43.176;76.872;2023-08-12T16:42:34;4.15;;;2.10;;
82475;SDS011;72099;43.176;76.872;2023-08-12T16:45:35;3.30;;;2.40;;
82475;SDS011;72099;43.176;76.872;2023-08-12T16:48:36;3.28;;;2.10;;
82475;SDS011;72099;43.176;76.872;2023-08-12T16:51:37;2.65;;;1.90;;
82475;SDS011;72099;43.176;76.872;2023-08-12T16:54:37;2.70;;;1.90;;
82475;SDS011;72099;43.176;76.872;2023-08-12T16:57:38;2.80;;;2.20;;
82475;SDS011;72099;43.176;76.872;2023-08-12T17:00:39;3.35;;;2.40;;
82475;SDS011;72099;43.176;76.872;2023-08-12T17:03:41;3.65;;;2.60;;
82475;SDS011;72099;43.176;76.872;2023-08-12T17:06:41;3.22;;;2.65;;
82475;SDS011;72099;43.176;76.872;2023-08-12T17:09:42;3.50;;;2.40;;
82475;SDS011;72099;43.176;76.872;2023-08-12T17:12:43;3.45;;;2.30;;
82475;SDS011;72099;43.176;76.872;2023-08-12T17:15:44;4.32;;;2.33;;
82475;SDS011;72099;43.176;76.872;2023-08-12T17:18:45;5.72;;;2.70;;
82475;SDS011;72099;43.176;76.872;2023-08-12T17:21:46;3.58;;;2.35;;
82475;SDS011;72099;43.176;76.872;2023-08-12T17:24:47;3.40;;;2.38;;
82475;SDS011;72099;43.176;76.872;2023-08-12T17:27:49;4.75;;;2.90;;
82475;SDS011;72099;43.176;76.872;2023-08-12T17:30:50;4.00;;;2.70;;
82475;SDS011;72099;43.176;76.872;2023-08-12T17:33:51;4.13;;;3.25;;
82475;SDS011;72099;43.176;76.872;2023-08-12T17:36:52;6.70;;;2.90;;
82475;SDS011;72099;43.176;76.872;2023-08-12T17:39:52;5.10;;;3.25;;
82475;SDS011;72099;43.176;76.872;2023-08-12T17:42:54;4.55;;;3.00;;
82475;SDS011;72099;43.176;76.872;2023-08-12T17:45:54;4.30;;;2.90;;
82475;SDS011;72099;43.176;76.872;2023-08-12T17:48:55;4.25;;;2.88;;
82475;SDS011;72099;43.176;76.872;2023-08-12T17:51:56;4.95;;;2.90;;
82475;SDS011;72099;43.176;76.872;2023-08-12T17:54:57;5.30;;;2.90;;
82475;SDS011;72099;43.176;76.872;2023-08-12T17:57:58;5.38;;;2.80;;
82475;SDS011;72099;43.176;76.872;2023-08-12T18:00:59;5.53;;;2.60;;